Time;durP1;ratioP1;P1;durP2;ratioP2;P2;SDS_P1;SDS_P2;PMS_P1;PMS_P2;Temp;Humidity;BMP_temperature;BMP_pressure;BME280_temperature;BME280_humidity;BME280_pressure;Samples;Min_cycle;Max_cycle;Signal;HPM_P1;HPM_P2
2021/10/22 00:01:41;;;;;;;16.20;2.60;;;6.70;99.90;;;;;;4962165;28;20042;-84
2021/10/22 00:04:08;;;;;;;12.13;1.58;;;6.80;99.90;;;;;;4955673;28;20129;-80
2021/10/22 00:06:33;;;;;;;19.00;2.63;;;7.30;99.90;;;;;;4970032;28;20050;-80
2021/10/22 00:08:59;;;;;;;9.15;1.75;;;6.60;99.90;;;;;;4954630;28;20074;-80
2021/10/22 00:11:25;;;;;;;12.63;1.90;;;6.60;99.90;;;;;;4954657;28;20057;-81
2021/10/22 00:13:51;;;;;;;14.68;1.40;;;6.60;99.90;;;;;;4968332;28;20141;-80
2021/10/22 00:16:17;;;;;;;13.73;1.60;;;6.70;99.90;;;;;;4953842;28;20133;-79
2021/10/22 00:18:43;;;;;;;14.10;1.80;;;6.70;99.90;;;;;;4985351;28;20041;-80
2021/10/22 00:21:09;;;;;;;17.75;2.50;;;6.70;99.90;;;;;;4966953;28;20075;-82
2021/10/22 00:23:34;;;;;;;8.93;1.42;;;6.70;99.90;;;;;;4968350;28;20540;-83
2021/10/22 00:26:00;;;;;;;16.20;2.20;;;6.80;99.90;;;;;;4953265;28;20100;-81
2021/10/22 00:28:25;;;;;;;13.10;1.77;;;6.90;99.90;;;;;;4941374;28;20534;-78
2021/10/22 00:30:51;;;;;;;18.52;1.90;;;6.90;99.90;;;;;;4954841;28;20058;-79
2021/10/22 00:33:17;;;;;;;19.35;1.88;;;7.00;99.90;;;;;;4953424;28;20153;-80
2021/10/22 00:35:42;;;;;;;20.35;2.08;;;7.00;99.90;;;;;;4952477;28;20162;-79
2021/10/22 00:38:08;;;;;;;19.02;2.20;;;6.90;99.90;;;;;;4982983;28;20035;-79
2021/10/22 00:40:33;;;;;;;13.88;1.95;;;6.90;99.90;;;;;;4970320;28;20077;-78
2021/10/22 00:43:00;;;;;;;13.68;2.25;;;7.20;99.90;;;;;;4958839;28;20130;-79
2021/10/22 00:45:25;;;;;;;13.48;1.80;;;7.10;99.90;;;;;;4951741;28;20046;-80
2021/10/22 00:47:51;;;;;;;13.13;1.92;;;6.80;99.90;;;;;;4968661;28;20073;-81
2021/10/22 00:50:18;;;;;;;13.07;1.80;;;7.00;99.90;;;;;;4970627;28;20098;-80
2021/10/22 00:52:45;;;;;;;10.95;2.28;;;6.80;99.90;;;;;;4952941;28;20446;-80
2021/10/22 00:55:14;;;;;;;15.20;2.22;;;6.70;99.90;;;;;;4953383;28;20039;-80
2021/10/22 00:57:40;;;;;;;13.57;2.33;;;6.70;99.90;;;;;;4955911;28;20042;-80
2021/10/22 01:00:07;;;;;;;13.50;1.95;;;6.10;99.90;;;;;;4938756;28;20087;-78
2021/10/22 01:02:36;;;;;;;11.27;1.73;;;6.80;99.90;;;;;;4970239;28;20034;-80
2021/10/22 01:05:08;;;;;;;15.00;1.90;;;6.90;99.90;;;;;;4950322;28;20081;-80
2021/10/22 01:07:37;;;;;;;15.57;2.05;;;7.00;99.90;;;;;;4972053;28;20055;-80
2021/10/22 01:10:04;;;;;;;16.73;2.60;;;7.10;99.90;;;;;;4966765;28;20054;-79
2021/10/22 01:12:31;;;;;;;13.65;2.20;;;7.20;99.90;;;;;;4954824;28;20039;-79
2021/10/22 01:14:58;;;;;;;18.48;2.15;;;7.30;99.90;;;;;;4958093;28;20039;-79
2021/10/22 01:17:44;;;;;;;22.13;2.30;;;7.40;99.90;;;;;;4953380;28;20051;-79
2021/10/22 01:20:11;;;;;;;;;;;7.50;99.90;;;;;;4982896;28;20125;-79
2021/10/22 01:22:41;;;;;;;22.13;2.20;;;7.60;99.90;;;;;;4955364;28;19993;-80
2021/10/22 01:25:09;;;;;;;18.50;2.33;;;7.60;99.90;;;;;;4956001;28;20043;-79
2021/10/22 01:27:35;;;;;;;21.00;2.55;;;7.70;99.90;;;;;;4956193;28;20370;-79
2021/10/22 01:30:01;;;;;;;22.27;2.80;;;7.70;99.90;;;;;;4958036;28;20050;-80
2021/10/22 01:32:27;;;;;;;16.75;2.30;;;7.80;99.90;;;;;;4973290;28;20086;-80
2021/10/22 01:34:53;;;;;;;21.77;3.03;;;7.90;99.90;;;;;;4958810;28;20117;-79
2021/10/22 01:37:19;;;;;;;12.75;2.53;;;8.00;99.90;;;;;;4956218;28;20417;-79
2021/10/22 01:39:44;;;;;;;13.82;2.05;;;8.00;99.90;;;;;;4955445;28;20054;-80
2021/10/22 01:42:10;;;;;;;14.07;2.13;;;8.00;99.90;;;;;;4957351;28;20041;-80
2021/10/22 01:44:36;;;;;;;19.77;2.35;;;8.10;99.90;;;;;;4955784;28;20065;-80
2021/10/22 01:47:01;;;;;;;17.10;2.20;;;8.10;99.90;;;;;;4955865;28;20046;-79
2021/10/22 01:49:27;;;;;;;13.73;2.13;;;8.00;99.90;;;;;;4956478;28;20050;-79
2021/10/22 01:51:53;;;;;;;15.18;2.38;;;8.10;99.90;;;;;;4956749;28;20046;-79
2021/10/22 01:54:19;;;;;;;17.08;2.40;;;7.90;99.90;;;;;;4955291;28;20051;-79
2021/10/22 01:56:44;;;;;;;21.15;2.90;;;7.80;99.90;;;;;;4939993;28;20081;-79
2021/10/22 01:59:10;;;;;;;15.10;2.40;;;7.80;99.90;;;;;;4955359;28;20037;-79
2021/10/22 02:01:36;;;;;;;17.13;2.42;;;7.80;99.90;;;;;;4955616;28;20034;-79
2021/10/22 02:04:01;;;;;;;23.05;2.35;;;7.80;99.90;;;;;;4939664;28;20453;-80
2021/10/22 02:06:27;;;;;;;24.08;2.67;;;7.80;99.90;;;;;;4955097;28;20042;-79
2021/10/22 02:08:53;;;;;;;16.90;2.53;;;7.80;99.90;;;;;;4951625;29;20053;-79
2021/10/22 02:11:18;;;;;;;23.75;2.70;;;7.90;99.90;;;;;;4951888;28;20055;-79
2021/10/22 02:13:44;;;;;;;15.45;2.35;;;7.90;99.90;;;;;;4952537;28;20045;-79
2021/10/22 02:16:10;;;;;;;14.70;2.30;;;8.00;99.90;;;;;;4951659;28;20036;-79
2021/10/22 02:18:36;;;;;;;19.92;2.28;;;8.00;99.90;;;;;;4951838;28;20055;-79
2021/10/22 02:21:01;;;;;;;19.70;2.50;;;8.00;99.90;;;;;;4951624;28;20046;-79
2021/10/22 02:23:27;;;;;;;13.23;2.25;;;8.00;99.90;;;;;;4952303;28;20126;-79
2021/10/22 02:25:53;;;;;;;16.27;1.90;;;8.00;99.90;;;;;;4951632;28;20070;-79
2021/10/22 02:28:18;;;;;;;17.35;2.60;;;7.90;99.90;;;;;;4937110;29;20142;-79
2021/10/22 02:30:45;;;;;;;14.93;2.03;;;8.00;99.90;;;;;;4967820;28;20039;-79
2021/10/22 02:33:11;;;;;;;18.67;2.50;;;8.00;99.90;;;;;;4951357;28;20044;-79
2021/10/22 02:35:38;;;;;;;16.15;2.38;;;7.90;99.90;;;;;;4935985;29;20062;-79
2021/10/22 02:38:04;;;;;;;16.02;2.35;;;7.70;99.90;;;;;;4951262;28;20045;-79
2021/10/22 02:40:29;;;;;;;15.60;2.33;;;7.70;99.90;;;;;;4954709;28;20043;-79
2021/10/22 02:42:55;;;;;;;19.85;2.15;;;7.80;99.90;;;;;;4953076;28;20121;-79
2021/10/22 02:45:21;;;;;;;19.92;2.65;;;7.60;99.90;;;;;;4954689;28;20062;-79
2021/10/22 02:47:47;;;;;;;17.58;2.50;;;7.60;99.90;;;;;;4966980;28;20047;-79
2021/10/22 02:50:13;;;;;;;16.23;2.20;;;7.70;99.90;;;;;;4950806;28;20035;-79
2021/10/22 02:52:38;;;;;;;17.00;2.47;;;7.70;99.90;;;;;;4951193;28;20515;-79
2021/10/22 02:55:06;;;;;;;21.52;2.60;;;7.60;99.90;;;;;;4955526;28;20122;-79
2021/10/22 02:57:31;;;;;;;17.73;2.45;;;7.50;99.90;;;;;;4952281;28;20759;-79
2021/10/22 02:59:58;;;;;;;13.00;2.20;;;7.60;99.90;;;;;;4954186;28;20073;-79
2021/10/22 03:02:24;;;;;;;11.20;2.20;;;7.50;99.90;;;;;;4950092;28;20153;-79
2021/10/22 03:04:49;;;;;;;11.35;2.17;;;7.60;99.90;;;;;;4951728;28;20051;-79
2021/10/22 03:07:15;;;;;;;18.65;2.72;;;7.70;99.90;;;;;;4954162;28;20538;-79
2021/10/22 03:09:41;;;;;;;11.27;1.95;;;7.70;99.90;;;;;;4951463;28;20210;-79
2021/10/22 03:12:06;;;;;;;15.75;2.20;;;7.80;99.90;;;;;;4952382;28;20051;-80
2021/10/22 03:14:33;;;;;;;9.70;1.92;;;7.90;99.90;;;;;;4952414;29;20451;-78
2021/10/22 03:16:58;;;;;;;14.00;2.33;;;7.90;99.90;;;;;;4951372;28;20137;-80
2021/10/22 03:19:25;;;;;;;12.60;1.95;;;8.00;99.90;;;;;;4952287;28;20481;-79
2021/10/22 03:21:51;;;;;;;17.23;2.30;;;8.10;99.90;;;;;;4950163;29;20078;-79
2021/10/22 03:24:16;;;;;;;13.43;2.60;;;8.10;99.90;;;;;;4969561;28;20415;-79
2021/10/22 03:26:42;;;;;;;14.07;2.00;;;8.20;99.90;;;;;;4953799;28;20042;-79
2021/10/22 03:29:08;;;;;;;18.17;2.40;;;8.20;99.90;;;;;;4951961;28;20130;-79
2021/10/22 03:31:35;;;;;;;21.13;2.75;;;8.20;99.90;;;;;;4954029;28;20051;-79
2021/10/22 03:34:00;;;;;;;20.92;2.53;;;8.10;99.90;;;;;;4953372;28;20047;-79
2021/10/22 03:36:28;;;;;;;15.18;2.10;;;8.00;99.90;;;;;;4948664;28;20065;-80
2021/10/22 03:38:54;;;;;;;17.48;2.65;;;8.00;99.90;;;;;;4952670;28;20054;-79
2021/10/22 03:41:19;;;;;;;25.25;3.03;;;8.00;99.90;;;;;;4950786;29;20382;-79
2021/10/22 03:43:45;;;;;;;16.10;2.20;;;7.90;99.90;;;;;;4951782;28;20085;-79
2021/10/22 03:46:11;;;;;;;19.27;2.97;;;7.90;99.90;;;;;;4951900;28;20541;-79
2021/10/22 03:48:37;;;;;;;13.30;1.92;;;7.90;99.90;;;;;;4950628;28;20094;-79
2021/10/22 03:51:02;;;;;;;19.52;2.40;;;7.90;99.90;;;;;;4950982;28;20078;-79
2021/10/22 03:53:28;;;;;;;17.15;2.22;;;7.90;99.90;;;;;;4951544;28;20486;-79
2021/10/22 03:55:53;;;;;;;20.25;2.70;;;7.90;99.90;;;;;;4949585;28;20479;-79
2021/10/22 03:58:19;;;;;;;19.20;2.03;;;8.00;99.90;;;;;;4950311;28;20054;-79
2021/10/22 04:00:46;;;;;;;15.27;2.17;;;8.10;99.90;;;;;;4949213;28;20047;-79
2021/10/22 04:03:13;;;;;;;15.48;2.58;;;8.10;99.90;;;;;;4951745;28;20047;-79
2021/10/22 04:05:39;;;;;;;15.05;2.28;;;8.50;99.90;;;;;;4952022;28;20046;-79
2021/10/22 04:08:05;;;;;;;18.65;2.42;;;8.40;99.90;;;;;;4952969;28;20051;-79
2021/10/22 04:10:30;;;;;;;12.88;2.25;;;8.40;99.90;;;;;;4952198;28;20062;-79
2021/10/22 04:12:56;;;;;;;14.35;1.83;;;8.40;99.90;;;;;;4948867;29;20570;-79
2021/10/22 04:15:22;;;;;;;14.13;2.13;;;8.50;99.90;;;;;;4952504;28;20058;-80
2021/10/22 04:17:48;;;;;;;12.88;2.10;;;8.60;99.90;;;;;;4952098;28;20059;-79
2021/10/22 04:20:13;;;;;;;19.73;2.10;;;8.50;99.90;;;;;;4949526;28;20058;-79
2021/10/22 04:22:39;;;;;;;21.33;2.60;;;8.70;99.90;;;;;;4948838;28;20043;-79
2021/10/22 04:25:05;;;;;;;13.82;1.90;;;8.50;99.90;;;;;;4950181;29;20039;-79
2021/10/22 04:27:32;;;;;;;14.15;1.80;;;8.50;99.90;;;;;;4951086;28;20134;-79
2021/10/22 04:30:04;;;;;;;11.02;2.00;;;8.40;99.90;;;;;;4949348;28;20043;-79
2021/10/22 04:32:29;;;;;;;17.17;1.95;;;8.50;99.90;;;;;;4950102;28;20368;-79
2021/10/22 04:34:55;;;;;;;12.95;2.30;;;8.40;99.90;;;;;;4950930;29;20063;-79
2021/10/22 04:37:29;;;;;;;14.52;2.22;;;8.40;99.90;;;;;;4948294;28;20055;-79
2021/10/22 04:42:41;;;;;;;13.95;2.00;;;8.30;99.90;;;;;;4948137;28;20518;-79
2021/10/22 04:45:09;;;;;;;22.08;2.78;;;8.40;99.90;;;;;;4953621;28;20039;-79
2021/10/22 04:47:35;;;;;;;12.98;1.95;;;8.30;99.90;;;;;;4950217;28;20051;-80
2021/10/22 04:50:01;;;;;;;13.25;2.30;;;8.40;99.90;;;;;;4951740;28;20047;-77
2021/10/22 04:52:27;;;;;;;12.88;2.00;;;8.50;99.90;;;;;;4949148;28;20062;-77
2021/10/22 04:54:53;;;;;;;11.60;2.03;;;8.60;99.90;;;;;;4949145;28;20048;-78
2021/10/22 04:57:18;;;;;;;16.10;2.10;;;8.50;99.90;;;;;;4950667;29;20039;-77
2021/10/22 04:59:44;;;;;;;9.52;1.77;;;8.40;99.90;;;;;;4950213;29;20036;-77
2021/10/22 05:02:10;;;;;;;7.57;1.33;;;8.50;99.90;;;;;;4950599;29;20525;-77
2021/10/22 05:04:35;;;;;;;12.20;2.08;;;8.40;99.90;;;;;;4950654;29;20441;-77
2021/10/22 05:07:01;;;;;;;11.88;1.95;;;8.50;99.90;;;;;;4951182;28;20035;-77
2021/10/22 05:09:27;;;;;;;13.73;2.05;;;8.40;99.90;;;;;;4953788;28;20078;-79
2021/10/22 05:11:53;;;;;;;15.55;2.40;;;8.40;99.90;;;;;;4955183;28;20165;-77
2021/10/22 05:14:19;;;;;;;12.95;2.10;;;8.40;99.90;;;;;;4953958;28;20123;-77
2021/10/22 05:16:44;;;;;;;9.70;1.98;;;8.30;99.90;;;;;;4953067;28;20424;-77
2021/10/22 05:19:10;;;;;;;21.88;2.22;;;8.60;99.90;;;;;;4954410;28;20478;-78
2021/10/22 05:21:36;;;;;;;17.95;2.50;;;8.30;99.90;;;;;;4968692;28;20387;-80
2021/10/22 05:24:01;;;;;;;14.63;2.15;;;8.40;99.90;;;;;;4953819;28;20042;-79
2021/10/22 05:26:29;;;;;;;17.25;2.10;;;8.40;99.90;;;;;;4937465;28;20316;-82
2021/10/22 05:28:55;;;;;;;15.07;2.33;;;8.50;99.90;;;;;;4955632;28;20035;-78
2021/10/22 05:31:20;;;;;;;11.10;1.88;;;8.80;99.90;;;;;;4952964;28;20077;-80
2021/10/22 05:33:46;;;;;;;16.20;2.47;;;8.50;99.90;;;;;;4953745;28;20418;-79
2021/10/22 05:36:11;;;;;;;15.60;1.73;;;8.70;99.90;;;;;;4952967;28;20049;-80
2021/10/22 05:38:38;;;;;;;12.63;2.15;;;8.70;99.90;;;;;;4953208;28;20134;-82
2021/10/22 05:41:04;;;;;;;8.00;1.80;;;8.70;99.90;;;;;;4952941;28;20039;-79
2021/10/22 05:43:30;;;;;;;7.63;1.45;;;8.60;99.90;;;;;;4953882;28;20501;-78
2021/10/22 05:45:56;;;;;;;15.32;2.38;;;8.60;99.90;;;;;;4952596;28;20055;-78
2021/10/22 05:48:22;;;;;;;15.15;1.92;;;8.70;99.90;;;;;;4953596;28;20160;-78
2021/10/22 05:50:47;;;;;;;16.27;2.40;;;8.70;99.90;;;;;;4951356;28;20066;-80
2021/10/22 05:53:13;;;;;;;14.35;2.35;;;8.70;99.90;;;;;;4950770;28;20082;-77
2021/10/22 05:55:39;;;;;;;9.98;1.80;;;8.50;99.90;;;;;;4954076;28;20038;-77
2021/10/22 05:58:05;;;;;;;17.58;2.00;;;8.50;99.90;;;;;;4953585;28;20098;-82
2021/10/22 06:00:31;;;;;;;12.07;1.65;;;8.50;99.90;;;;;;4955463;28;20070;-80
2021/10/22 06:02:58;;;;;;;20.65;2.78;;;8.50;99.90;;;;;;4952751;28;20077;-81
2021/10/22 06:05:24;;;;;;;18.63;2.70;;;8.40;99.90;;;;;;4967461;28;20051;-78
2021/10/22 06:07:49;;;;;;;16.98;2.63;;;8.60;99.90;;;;;;4956743;28;20038;-77
2021/10/22 06:10:15;;;;;;;13.57;2.03;;;8.50;99.90;;;;;;4941294;28;20047;-78
2021/10/22 06:12:41;;;;;;;11.35;2.08;;;8.40;99.90;;;;;;4955991;28;20061;-79
2021/10/22 06:15:07;;;;;;;16.10;2.13;;;8.50;99.90;;;;;;4956591;28;20078;-82
2021/10/22 06:17:33;;;;;;;13.80;2.22;;;8.40;99.90;;;;;;4940460;28;20047;-82
2021/10/22 06:20:10;;;;;;;9.23;1.85;;;8.50;99.90;;;;;;4942529;28;20041;-80
2021/10/22 06:23:53;;;;;;;16.95;2.45;;;8.50;99.90;;;;;;4979139;28;20492;-79
2021/10/22 06:25:38;;;;;;;14.93;2.28;;;8.50;99.90;;;;;;4959188;28;20052;-79
2021/10/22 06:28:05;;;;;;;22.58;2.30;;;8.40;99.90;;;;;;4955793;28;20057;-80
2021/10/22 06:30:31;;;;;;;16.33;2.35;;;8.40;99.90;;;;;;4968766;28;20054;-79
2021/10/22 06:32:57;;;;;;;12.60;1.95;;;8.40;99.90;;;;;;4974655;28;20059;-79
2021/10/22 06:35:23;;;;;;;16.65;2.60;;;8.50;99.90;;;;;;4957251;28;20554;-80
2021/10/22 06:37:50;;;;;;;14.77;2.38;;;8.40;99.90;;;;;;4956329;28;20233;-80
2021/10/22 06:40:16;;;;;;;18.92;2.42;;;8.40;99.90;;;;;;4956709;28;20189;-79
2021/10/22 06:42:43;;;;;;;17.75;2.50;;;8.40;99.90;;;;;;4956869;28;20034;-80
2021/10/22 06:45:10;;;;;;;16.70;2.38;;;8.50;99.90;;;;;;4957909;28;20047;-81
2021/10/22 06:47:36;;;;;;;20.08;2.50;;;8.50;99.90;;;;;;4956041;28;20061;-81
2021/10/22 06:50:04;;;;;;;22.05;2.47;;;8.40;99.90;;;;;;4954320;28;20039;-79
2021/10/22 06:52:30;;;;;;;17.33;2.92;;;8.50;99.90;;;;;;4956189;28;20058;-80
2021/10/22 06:54:56;;;;;;;23.15;3.53;;;8.50;99.90;;;;;;4955713;28;20480;-80
2021/10/22 06:57:22;;;;;;;20.60;2.70;;;8.50;99.90;;;;;;4955976;28;20109;-80
2021/10/22 06:59:48;;;;;;;20.08;2.83;;;8.70;99.90;;;;;;4955568;28;20046;-81
2021/10/22 07:02:14;;;;;;;17.00;2.95;;;8.60;99.90;;;;;;4955293;28;20162;-81
2021/10/22 07:04:47;;;;;;;27.02;3.50;;;8.70;99.90;;;;;;4955486;28;20050;-80
2021/10/22 07:07:16;;;;;;;16.67;2.63;;;9.00;99.90;;;;;;4976160;28;20046;-81
2021/10/22 07:09:42;;;;;;;19.95;3.00;;;8.80;99.90;;;;;;4956089;28;20529;-80
2021/10/22 07:12:09;;;;;;;26.52;3.22;;;8.80;99.90;;;;;;4955809;28;20419;-78
2021/10/22 07:14:36;;;;;;;22.75;2.88;;;8.90;99.90;;;;;;4956553;28;20830;-79
2021/10/22 07:17:04;;;;;;;17.77;2.60;;;8.90;99.90;;;;;;4955887;28;20430;-78
2021/10/22 07:19:30;;;;;;;21.23;3.30;;;9.00;99.90;;;;;;4955008;28;20042;-78
2021/10/22 07:22:03;;;;;;;21.67;2.72;;;9.00;99.90;;;;;;4952354;28;20047;-78
2021/10/22 07:24:28;;;;;;;17.90;2.97;;;9.10;99.90;;;;;;4958080;28;20050;-80
2021/10/22 07:26:54;;;;;;;19.73;3.03;;;9.20;99.90;;;;;;4956017;28;20468;-79
2021/10/22 07:29:20;;;;;;;14.48;2.35;;;9.30;99.90;;;;;;4956467;28;20046;-84
2021/10/22 07:31:46;;;;;;;14.00;2.22;;;9.50;99.90;;;;;;4972978;28;20034;-80
2021/10/22 07:34:14;;;;;;;17.23;2.28;;;9.60;99.90;;;;;;4955933;28;20482;-78
2021/10/22 07:36:40;;;;;;;12.70;1.95;;;9.70;99.90;;;;;;4983461;28;20039;-78
2021/10/22 07:39:07;;;;;;;7.75;2.33;;;9.70;99.90;;;;;;4973495;28;20171;-81
2021/10/22 07:41:33;;;;;;;14.50;2.75;;;9.80;99.90;;;;;;4961838;28;20050;-80
2021/10/22 07:43:59;;;;;;;14.50;2.80;;;9.70;99.90;;;;;;4955018;28;20058;-80
2021/10/22 07:46:24;;;;;;;13.15;2.15;;;9.70;99.90;;;;;;4955923;28;20478;-80
2021/10/22 07:48:50;;;;;;;14.10;2.42;;;9.60;99.90;;;;;;4956723;28;20062;-78
2021/10/22 07:51:16;;;;;;;16.08;2.58;;;9.60;99.90;;;;;;4955482;28;20058;-80
2021/10/22 07:53:42;;;;;;;12.43;1.40;;;9.50;99.90;;;;;;4955209;28;20043;-80
2021/10/22 07:56:08;;;;;;;10.45;2.08;;;9.40;99.90;;;;;;4955524;28;20054;-80
2021/10/22 07:58:33;;;;;;;10.02;1.70;;;9.30;99.90;;;;;;4955942;28;20039;-80
2021/10/22 08:00:59;;;;;;;12.20;1.83;;;9.20;99.90;;;;;;4973199;28;20077;-80
2021/10/22 08:03:25;;;;;;;15.95;2.13;;;9.30;99.90;;;;;;4955852;28;20053;-80
2021/10/22 08:05:52;;;;;;;15.07;2.35;;;9.50;99.90;;;;;;4954766;28;20054;-79
2021/10/22 08:08:17;;;;;;;22.30;1.70;;;9.30;99.90;;;;;;4973471;28;20110;-80
2021/10/22 08:10:43;;;;;;;12.27;1.75;;;9.30;99.90;;;;;;4954951;28;20047;-80
2021/10/22 08:13:11;;;;;;;15.02;1.90;;;9.40;99.90;;;;;;4955006;28;20062;-80
2021/10/22 08:15:39;;;;;;;14.02;2.10;;;9.50;99.90;;;;;;4955360;28;20462;-80
2021/10/22 08:18:06;;;;;;;13.38;1.85;;;9.80;99.90;;;;;;4972723;28;20038;-80
2021/10/22 08:20:34;;;;;;;14.10;2.05;;;9.60;99.90;;;;;;4955475;28;20453;-80
2021/10/22 08:23:00;;;;;;;16.45;2.58;;;9.50;99.90;;;;;;4964888;28;20058;-79
2021/10/22 08:25:26;;;;;;;20.75;2.75;;;9.30;99.90;;;;;;4955151;28;20059;-79
2021/10/22 08:27:51;;;;;;;18.08;2.70;;;9.40;99.90;;;;;;4955535;28;20496;-80
2021/10/22 08:30:24;;;;;;;8.77;2.05;;;9.50;99.90;;;;;;4955206;28;20042;-79
2021/10/22 08:32:51;;;;;;;16.75;2.40;;;9.50;99.90;;;;;;4954868;28;20051;-80
2021/10/22 08:35:18;;;;;;;12.98;2.28;;;9.50;99.90;;;;;;4954940;28;20050;-80
2021/10/22 08:37:44;;;;;;;19.45;2.80;;;9.50;99.90;;;;;;4987060;28;20046;-79
2021/10/22 08:40:11;;;;;;;22.08;2.60;;;9.60;99.90;;;;;;4970489;28;20505;-79
2021/10/22 08:42:37;;;;;;;15.95;2.67;;;9.50;99.90;;;;;;4954334;28;20059;-79
2021/10/22 08:45:04;;;;;;;19.67;2.67;;;9.60;99.90;;;;;;4953465;28;20343;-80
2021/10/22 08:47:32;;;;;;;14.98;2.60;;;9.70;99.90;;;;;;4954969;28;20053;-80
2021/10/22 08:50:00;;;;;;;21.17;2.65;;;9.70;99.90;;;;;;4952926;28;20132;-78
2021/10/22 08:52:30;;;;;;;14.45;2.38;;;9.80;99.90;;;;;;4939036;28;20074;-78
2021/10/22 08:54:57;;;;;;;16.88;2.58;;;9.80;99.90;;;;;;4953633;28;20054;-78
2021/10/22 08:57:23;;;;;;;15.45;2.10;;;10.20;99.90;;;;;;4954175;28;20136;-78
2021/10/22 08:59:49;;;;;;;16.48;2.55;;;10.10;99.90;;;;;;4954040;28;20054;-78
2021/10/22 09:02:20;;;;;;;11.15;1.70;;;10.10;99.90;;;;;;4954991;28;20030;-78
2021/10/22 09:04:47;;;;;;;15.65;2.30;;;10.10;99.90;;;;;;4954110;28;20065;-78
2021/10/22 09:07:21;;;;;;;20.60;2.47;;;10.20;99.90;;;;;;4954068;28;20134;-79
2021/10/22 09:10:16;;;;;;;16.92;2.47;;;10.20;99.90;;;;;;4956201;28;20290;-79
2021/10/22 09:12:47;;;;;;;11.43;2.60;;;10.40;99.90;;;;;;4985548;28;20060;-79
2021/10/22 09:15:14;;;;;;;20.95;2.50;;;10.70;99.90;;;;;;4954898;28;20460;-79
2021/10/22 09:17:41;;;;;;;20.55;3.10;;;11.00;99.90;;;;;;4955696;28;20053;-78
2021/10/22 09:20:10;;;;;;;10.50;1.90;;;11.10;99.90;;;;;;4954264;28;20047;-79
2021/10/22 09:22:36;;;;;;;17.67;2.60;;;11.10;99.90;;;;;;4953369;28;20819;-80
2021/10/22 09:25:09;;;;;;;10.63;1.80;;;11.00;99.90;;;;;;4971760;28;20055;-81
2021/10/22 09:27:57;;;;;;;9.00;1.60;;;10.60;99.90;;;;;;4952339;29;20051;-82
2021/10/22 09:30:38;;;;;;;13.25;2.22;;;10.10;99.90;;;;;;4954915;28;20062;-79
2021/10/22 09:33:06;;;;;;;13.25;1.85;;;9.90;99.90;;;;;;4968198;28;20711;-78
2021/10/22 09:35:37;;;;;;;14.35;2.20;;;9.70;99.90;;;;;;4952691;28;20137;-77
2021/10/22 09:38:30;;;;;;;16.00;2.38;;;9.60;99.90;;;;;;4953305;28;20054;-81
2021/10/22 09:41:13;;;;;;;14.30;2.28;;;9.60;99.90;;;;;;4949754;28;20061;-79
2021/10/22 09:43:43;;;;;;;9.82;1.75;;;9.60;99.90;;;;;;4958127;28;20401;-80
2021/10/22 09:46:17;;;;;;;10.63;1.75;;;9.50;99.90;;;;;;4958122;28;20042;-80
2021/10/22 09:48:48;;;;;;;10.98;1.85;;;9.40;99.90;;;;;;4958142;28;20081;-79
2021/10/22 09:51:33;;;;;;;11.30;2.05;;;9.40;99.90;;;;;;4973438;28;20170;-78
2021/10/22 09:54:10;;;;;;;11.15;1.95;;;9.30;99.90;;;;;;4957718;28;20134;-79
2021/10/22 09:56:38;;;;;;;19.13;2.38;;;9.40;99.90;;;;;;4953281;28;20134;-81
2021/10/22 09:59:10;;;;;;;17.30;2.30;;;9.30;99.90;;;;;;4957086;28;20055;-81
2021/10/22 10:01:41;;;;;;;14.82;2.30;;;9.40;99.90;;;;;;4957460;28;20046;-80
2021/10/22 10:04:09;;;;;;;14.65;2.33;;;9.70;99.90;;;;;;4971795;28;20089;-81
2021/10/22 10:06:37;;;;;;;11.85;1.55;;;10.00;99.90;;;;;;4958426;28;20431;-81
2021/10/22 10:09:06;;;;;;;12.15;2.20;;;9.50;99.90;;;;;;4941269;28;20058;-81
2021/10/22 10:11:32;;;;;;;8.07;1.15;;;10.10;99.90;;;;;;4942271;28;20070;-81
2021/10/22 10:14:00;;;;;;;8.00;1.42;;;9.60;99.90;;;;;;4957581;28;20441;-80
2021/10/22 10:16:27;;;;;;;9.90;1.52;;;10.50;99.90;;;;;;4956949;28;20061;-80
2021/10/22 10:19:02;;;;;;;8.68;1.38;;;9.80;99.90;;;;;;4957796;28;20043;-81
2021/10/22 10:21:31;;;;;;;13.27;1.70;;;9.80;99.90;;;;;;4954685;28;20828;-80
2021/10/22 10:23:59;;;;;;;10.23;1.38;;;10.10;99.90;;;;;;4960512;28;20149;-82
2021/10/22 10:26:30;;;;;;;12.75;1.70;;;9.80;99.90;;;;;;4961100;28;20478;-81
2021/10/22 10:29:03;;;;;;;17.30;2.40;;;9.80;99.90;;;;;;4973225;28;20042;-80
2021/10/22 10:31:33;;;;;;;13.13;1.98;;;9.90;99.90;;;;;;4953306;28;20082;-78
2021/10/22 10:34:00;;;;;;;19.30;1.88;;;9.90;99.90;;;;;;4956501;28;20089;-79
2021/10/22 10:36:52;;;;;;;11.35;1.63;;;10.40;99.90;;;;;;4971757;28;20057;-80
2021/10/22 10:39:42;;;;;;;19.67;2.53;;;9.90;99.90;;;;;;4971836;28;20159;-79
2021/10/22 10:42:38;;;;;;;15.88;2.20;;;10.00;99.90;;;;;;4955937;28;20046;-78
2021/10/22 10:45:06;;;;;;;11.60;2.08;;;10.10;99.90;;;;;;4864885;29;20055;-78
2021/10/22 10:47:42;;;;;;;13.10;2.05;;;10.10;99.90;;;;;;4863544;29;20060;-80
2021/10/22 10:50:08;;;;;;;22.08;2.65;;;10.30;99.90;;;;;;4895042;29;20051;-80
2021/10/22 10:52:37;;;;;;;14.52;2.08;;;10.30;99.90;;;;;;4877312;29;20349;-79
2021/10/22 10:55:14;;;;;;;22.20;3.00;;;10.40;99.90;;;;;;4879064;29;20060;-79
2021/10/22 10:58:24;;;;;;;21.52;2.47;;;10.40;99.90;;;;;;4864225;29;20063;-82
2021/10/22 11:01:19;;;;;;;14.93;2.20;;;10.40;99.90;;;;;;4880192;29;20459;-82
2021/10/22 11:03:46;;;;;;;16.48;1.90;;;10.50;99.90;;;;;;4895525;29;20036;-85
2021/10/22 11:06:34;;;;;;;16.30;2.05;;;10.20;99.90;;;;;;4894865;29;20559;-86
2021/10/22 11:09:04;;;;;;;14.27;2.13;;;10.40;99.90;;;;;;4894576;29;20056;-82
2021/10/22 11:11:35;;;;;;;15.07;2.45;;;9.90;99.90;;;;;;4894271;29;20060;-79
2021/10/22 11:14:08;;;;;;;22.13;3.20;;;9.80;99.90;;;;;;4890410;29;20076;-80
2021/10/22 11:16:43;;;;;;;23.92;3.00;;;9.60;99.90;;;;;;4862764;29;20167;-79
2021/10/22 11:19:31;;;;;;;18.75;2.75;;;9.70;99.90;;;;;;4893384;29;20383;-79
2021/10/22 11:22:01;;;;;;;19.27;2.15;;;9.90;99.90;;;;;;4920835;28;20074;-79
2021/10/22 11:24:33;;;;;;;14.05;2.30;;;10.00;99.90;;;;;;4955032;28;20051;-79
2021/10/22 11:30:54;;;;;;;8.90;1.40;;;10.30;99.90;;;;;;4972479;28;20061;-81
2021/10/22 11:33:49;;;;;;;;;;;;;;;;;;;;;
2021/10/22 11:44:36;;;;;;;13.45;1.85;;;10.50;99.90;;;;;;4834964;29;20069;-78
2021/10/22 11:47:08;;;;;;;15.13;2.13;;;11.00;99.90;;;;;;4788439;29;20061;-79
2021/10/22 11:49:44;;;;;;;9.10;1.98;;;10.60;99.90;;;;;;4804198;29;20050;-80
2021/10/22 11:52:16;;;;;;;15.15;2.03;;;10.90;99.90;;;;;;4802449;29;20050;-79
2021/10/22 11:54:43;;;;;;;19.20;2.25;;;10.60;99.90;;;;;;4805378;29;20081;-80
2021/10/22 11:57:22;;;;;;;23.80;2.90;;;10.70;99.90;;;;;;4812000;29;20046;-78
2021/10/22 11:59:50;;;;;;;16.67;2.55;;;11.00;99.90;;;;;;4807899;29;20063;-77
2021/10/22 12:02:20;;;;;;;14.45;2.30;;;11.00;99.90;;;;;;4804213;29;20053;-78
2021/10/22 12:04:55;;;;;;;12.30;2.00;;;11.10;99.90;;;;;;4803246;29;20058;-77
2021/10/22 12:07:21;;;;;;;14.88;1.98;;;11.10;99.90;;;;;;4817405;29;20109;-77
2021/10/22 12:10:23;;;;;;;19.13;3.03;;;11.30;99.90;;;;;;4787586;29;20043;-78
2021/10/22 12:12:56;;;;;;;14.18;1.73;;;11.00;99.90;;;;;;4832545;29;20058;-78
2021/10/22 12:15:46;;;;;;;15.73;2.05;;;10.70;99.90;;;;;;4821997;29;20490;-78
2021/10/22 12:18:15;;;;;;;15.05;2.22;;;10.60;99.90;;;;;;4855749;29;20201;-77
2021/10/22 12:20:41;;;;;;;19.02;2.95;;;11.30;99.90;;;;;;4868865;29;20064;-77
2021/10/22 12:23:11;;;;;;;10.35;1.75;;;10.90;99.90;;;;;;4883339;28;20054;-77
2021/10/22 12:25:37;;;;;;;9.23;1.67;;;11.00;99.90;;;;;;4971408;28;20027;-78
2021/10/22 12:28:15;;;;;;;16.05;2.58;;;11.10;99.90;;;;;;4969859;28;20057;-76
2021/10/22 12:30:42;;;;;;;14.38;2.03;;;11.30;99.90;;;;;;4953644;28;20050;-77
2021/10/22 12:33:11;;;;;;;14.40;1.98;;;11.30;99.90;;;;;;4953341;28;20078;-76
2021/10/22 12:35:46;;;;;;;13.85;1.58;;;11.70;99.90;;;;;;4953262;28;20050;-79
2021/10/22 12:38:18;;;;;;;16.85;1.90;;;11.80;99.90;;;;;;4953392;28;20043;-78
2021/10/22 12:40:52;;;;;;;13.75;2.70;;;11.90;99.90;;;;;;4966515;28;20045;-78
2021/10/22 12:43:45;;;;;;;14.02;2.70;;;12.00;99.90;;;;;;4953150;28;20411;-80
2021/10/22 12:46:28;;;;;;;17.30;2.22;;;11.80;99.90;;;;;;4976130;28;20062;-78
2021/10/22 12:49:01;;;;;;;;;;;11.40;99.90;;;;;;4966593;28;20051;-77
2021/10/22 12:51:36;;;;;;;14.50;2.60;;;11.10;99.90;;;;;;4952449;28;20281;-79
2021/10/22 12:54:05;;;;;;;15.05;2.70;;;11.20;99.90;;;;;;4955203;28;20410;-79
2021/10/22 12:57:19;;;;;;;11.32;1.92;;;11.30;99.90;;;;;;4954076;28;20482;-79
2021/10/22 12:59:45;;;;;;;13.60;2.40;;;11.60;99.90;;;;;;4896399;29;20055;-79
2021/10/22 13:02:27;;;;;;;9.98;1.83;;;11.70;99.90;;;;;;4927476;29;20150;-77
2021/10/22 13:05:13;;;;;;;13.15;1.88;;;11.80;99.90;;;;;;4898110;29;20064;-78
2021/10/22 13:21:28;;;;;;;20.80;2.13;;;12.30;99.90;;;;;;4839318;29;20056;-75
2021/10/22 13:23:54;;;;;;;13.30;1.67;;;12.20;99.90;;;;;;4865212;29;20140;-77
2021/10/22 13:26:20;;;;;;;12.15;1.80;;;12.10;99.90;;;;;;4857925;29;20516;-78